Aviation Digital Data Service (ADDS)

Output produced by METARs form (0506 UTC 28 August 2014)
found at http://www.aviationweather.gov/adds/metars/
 
KDOV 280458Z AUTO 21004KT 10SM CLR 22/19 A2987 RMK AO2 SLP118 T02190188 403020158
TAF KDOV 2800/2906 22006KT 9999 SKC QNH2984INS 
     BECMG 2807/2808 31006KT 9999 SCT060 QNH2986INS 
     BECMG 2814/2815 33012G18KT 9999 SKC QNH2990INS 
     BECMG 2823/2824 33006KT 9999 SKC QNH2994INS TX28/2819Z TN20/2810Z